Time;durP1;ratioP1;P1;durP2;ratioP2;P2;SDS_P1;SDS_P2;PMS_P1;PMS_P2;Temp;Humidity;BMP_temperature;BMP_pressure;BME280_temperature;BME280_humidity;BME280_pressure;Samples;Min_cycle;Max_cycle;Signal;HPM_P1;HPM_P2
2022/12/30 00:00:43;;;;;;;21.10;10.90;;;5.60;99.90;;;;;;10437893;28;20052;-77
2022/12/30 00:05:43;;;;;;;19.63;11.27;;;5.70;99.90;;;;;;10438366;28;20121;-77
2022/12/30 00:10:44;;;;;;;25.43;12.50;;;5.70;99.90;;;;;;10438935;28;20025;-77
2022/12/30 00:37:08;;;;;;;28.50;13.70;;;5.20;99.90;;;;;;10438293;28;20049;-77
2022/12/30 00:47:27;;;;;;;27.33;15.13;;;5.10;99.90;;;;;;10437398;28;20028;-77
2022/12/30 00:57:47;;;;;;;30.00;13.90;;;4.90;99.90;;;;;;10434687;28;20071;-77
2022/12/30 01:02:48;;;;;;;34.50;17.37;;;4.80;99.90;;;;;;10437184;28;20041;-77
2022/12/30 01:07:48;;;;;;;32.83;17.40;;;4.70;99.90;;;;;;10445140;28;20037;-77
2022/12/30 01:12:49;;;;;;;42.67;20.87;;;4.70;99.90;;;;;;10446776;28;20957;-77
2022/12/30 01:17:49;;;;;;;29.23;13.67;;;4.70;99.90;;;;;;10446267;28;20163;-78
2022/12/30 01:22:50;;;;;;;22.03;10.97;;;4.80;99.90;;;;;;10446507;28;20469;-78
2022/12/30 01:27:51;;;;;;;21.40;11.60;;;5.00;99.90;;;;;;10442709;28;20116;-77
2022/12/30 01:32:51;;;;;;;22.67;11.37;;;5.20;99.90;;;;;;10445309;28;20108;-77
2022/12/30 01:37:52;;;;;;;23.83;13.10;;;5.30;99.90;;;;;;10445104;28;20037;-77
2022/12/30 01:42:52;;;;;;;26.33;13.97;;;5.40;99.90;;;;;;10457852;23;20760;-78
2022/12/30 01:48:07;;;;;;;23.53;12.73;;;5.40;99.90;;;;;;10439734;28;20033;-78
2022/12/30 01:53:15;;;;;;;28.20;14.13;;;5.40;99.90;;;;;;10441611;28;20086;-78
2022/12/30 01:58:23;;;;;;;26.33;14.40;;;5.40;99.90;;;;;;10438943;28;20040;-77
2022/12/30 02:03:33;;;;;;;33.53;17.20;;;5.40;99.90;;;;;;10430213;28;20051;-78
2022/12/30 02:08:34;;;;;;;32.53;17.40;;;5.30;99.90;;;;;;10436933;28;20029;-77
2022/12/30 02:13:35;;;;;;;32.97;17.17;;;5.20;99.90;;;;;;10423756;28;20029;-77
2022/12/30 02:18:58;;;;;;;28.90;15.80;;;5.00;99.90;;;;;;10423760;28;20049;-77
2022/12/30 02:24:35;;;;;;;27.90;15.93;;;5.00;99.90;;;;;;10423063;28;20037;-78
2022/12/30 02:29:57;;;;;;;35.23;16.63;;;5.00;99.90;;;;;;10418378;28;20626;-76
2022/12/30 02:35:09;;;;;;;43.27;21.10;;;5.00;99.90;;;;;;10414594;28;20080;-78
2022/12/30 02:40:15;;;;;;;43.57;21.03;;;4.80;99.90;;;;;;10423688;28;20155;-78
2022/12/30 02:45:40;;;;;;;47.88;23.95;;;4.80;99.90;;;;;;10418379;28;20620;-77
2022/12/30 02:56:03;;;;;;;52.20;25.80;;;4.50;99.90;;;;;;10418620;28;20862;-77
2022/12/30 03:07:08;;;;;;;44.17;22.83;;;4.30;99.90;;;;;;10417493;28;20068;-78
2022/12/30 03:12:12;;;;;;;46.23;23.23;;;4.20;99.90;;;;;;10417793;28;20029;-76
2022/12/30 03:17:22;;;;;;;42.93;23.17;;;4.10;99.90;;;;;;10420499;28;20028;-77
2022/12/30 03:27:45;;;;;;;45.43;23.77;;;4.20;99.90;;;;;;10417549;28;20481;-79
2022/12/30 03:32:45;;;;;;;48.10;24.53;;;4.10;99.90;;;;;;10414517;28;20033;-78
2022/12/30 03:37:51;;;;;;;50.63;26.63;;;4.20;99.90;;;;;;10417593;28;20041;-77
2022/12/30 03:42:53;;;;;;;54.58;26.50;;;4.20;99.90;;;;;;10417170;28;20075;-77
2022/12/30 03:47:54;;;;;;;54.67;28.73;;;4.10;99.90;;;;;;10418469;28;20040;-77
2022/12/30 03:52:54;;;;;;;52.97;27.13;;;4.10;99.90;;;;;;10416381;28;20072;-77
2022/12/30 03:57:55;;;;;;;51.97;27.93;;;4.00;99.90;;;;;;10416477;28;20511;-78
2022/12/30 04:02:55;;;;;;;54.63;28.70;;;3.90;99.90;;;;;;10413278;28;20044;-78
2022/12/30 04:07:56;;;;;;;52.47;28.97;;;3.80;99.90;;;;;;10419727;28;20066;-78
2022/12/30 04:12:56;;;;;;;47.93;25.23;;;3.90;99.90;;;;;;10413064;28;20588;-78
2022/12/30 04:17:57;;;;;;;38.17;20.43;;;3.90;99.90;;;;;;10413260;28;20041;-77
2022/12/30 04:22:58;;;;;;;32.10;17.77;;;4.10;99.90;;;;;;10417371;28;20028;-78
2022/12/30 04:27:59;;;;;;;33.03;18.07;;;4.20;99.90;;;;;;10419077;28;20029;-77
2022/12/30 04:33:00;;;;;;;30.10;16.53;;;4.40;99.90;;;;;;10418525;28;20056;-77
2022/12/30 04:38:00;;;;;;;28.33;16.70;;;4.50;99.90;;;;;;10415392;28;20041;-79
2022/12/30 04:43:01;;;;;;;32.30;18.73;;;4.70;99.90;;;;;;10414675;28;20052;-78
2022/12/30 04:48:02;;;;;;;34.23;19.03;;;4.70;99.90;;;;;;10408664;28;20048;-78
2022/12/30 04:53:02;;;;;;;86.50;31.93;;;4.80;99.90;;;;;;10390421;28;20033;-78
2022/12/30 04:58:03;;;;;;;60.37;25.53;;;4.90;99.90;;;;;;10402092;28;20441;-77
2022/12/30 05:03:04;;;;;;;34.57;18.30;;;4.90;99.90;;;;;;10398501;28;20505;-77
2022/12/30 05:08:05;;;;;;;34.93;18.73;;;4.90;99.90;;;;;;10398519;28;20052;-78
2022/12/30 05:13:06;;;;;;;35.30;18.63;;;5.00;99.90;;;;;;10393091;28;20068;-78
2022/12/30 05:18:07;;;;;;;38.73;19.40;;;5.00;99.90;;;;;;10411798;28;20124;-77
2022/12/30 05:26:13;;;;;;;38.63;19.03;;;5.10;99.90;;;;;;10402688;28;20024;-79
2022/12/30 05:28:28;;;;;;;43.23;20.70;;;5.10;99.90;;;;;;10401857;28;20040;-77
2022/12/30 05:33:28;;;;;;;36.90;18.33;;;5.20;99.90;;;;;;10401018;28;20033;-77
2022/12/30 05:38:29;;;;;;;35.27;18.83;;;5.30;99.90;;;;;;10393985;28;20038;-77
2022/12/30 05:43:29;;;;;;;33.93;18.27;;;5.30;99.90;;;;;;10392707;28;20680;-78
2022/12/30 05:48:30;;;;;;;36.40;17.90;;;5.40;99.90;;;;;;10399030;28;20073;-77
2022/12/30 05:53:31;;;;;;;31.80;17.40;;;5.40;99.90;;;;;;10404551;28;20108;-76
2022/12/30 05:58:32;;;;;;;33.77;17.37;;;5.50;99.90;;;;;;10404305;28;20435;-76
2022/12/30 06:03:32;;;;;;;35.17;17.77;;;5.50;99.90;;;;;;10404600;28;20037;-77
2022/12/30 06:08:34;;;;;;;34.43;18.50;;;5.50;99.90;;;;;;10408097;28;20037;-77
2022/12/30 06:13:35;;;;;;;40.30;20.93;;;5.50;99.90;;;;;;10406710;28;20116;-78
2022/12/30 06:18:35;;;;;;;32.13;17.10;;;5.50;99.90;;;;;;10406574;28;20034;-77
2022/12/30 06:23:36;;;;;;;35.17;19.03;;;5.50;99.90;;;;;;10406321;28;20099;-77
2022/12/30 06:28:36;;;;;;;52.57;27.10;;;5.50;99.90;;;;;;10406612;28;20036;-77
2022/12/30 06:33:37;;;;;;;67.07;33.80;;;5.50;99.90;;;;;;10406310;28;20053;-77
2022/12/30 06:38:38;;;;;;;79.47;38.43;;;5.50;99.90;;;;;;10405715;28;20041;-78
2022/12/30 06:43:39;;;;;;;87.10;43.93;;;5.50;99.90;;;;;;10405825;28;20461;-77
2022/12/30 06:48:39;;;;;;;68.13;35.50;;;5.50;99.90;;;;;;10405484;28;20030;-77
2022/12/30 06:53:40;;;;;;;58.63;29.60;;;5.50;99.90;;;;;;10405923;28;20034;-77
2022/12/30 06:58:40;;;;;;;47.93;23.13;;;5.50;99.90;;;;;;10405693;28;20041;-77
2022/12/30 07:03:41;;;;;;;39.17;22.07;;;5.50;99.90;;;;;;10404059;28;20033;-77
2022/12/30 07:08:41;;;;;;;42.70;23.83;;;5.50;99.90;;;;;;10405034;28;20482;-77
2022/12/30 07:13:42;;;;;;;42.13;23.27;;;5.50;99.90;;;;;;10404402;28;20053;-77
2022/12/30 07:18:42;;;;;;;44.23;23.43;;;5.60;99.90;;;;;;10404223;28;20037;-76
2022/12/30 07:23:43;;;;;;;34.77;19.93;;;5.60;99.90;;;;;;10404754;28;20021;-76
2022/12/30 07:28:44;;;;;;;37.73;19.90;;;5.60;99.90;;;;;;10404080;28;20026;-77
2022/12/30 07:33:44;;;;;;;33.33;19.60;;;5.60;99.90;;;;;;10404749;28;20032;-77
2022/12/30 07:38:45;;;;;;;45.07;22.97;;;5.60;99.90;;;;;;10403438;28;20120;-77
2022/12/30 07:43:45;;;;;;;36.37;21.00;;;5.60;99.90;;;;;;10403330;28;20056;-77
2022/12/30 07:48:46;;;;;;;42.43;22.83;;;5.70;99.90;;;;;;10404022;28;20049;-77
2022/12/30 07:53:46;;;;;;;42.93;23.63;;;5.60;99.90;;;;;;10402629;28;20029;-77
2022/12/30 07:58:47;;;;;;;47.43;23.83;;;5.60;99.90;;;;;;10402616;28;20551;-78
2022/12/30 08:03:47;;;;;;;47.73;24.23;;;5.70;99.90;;;;;;10402306;28;20037;-77
2022/12/30 08:08:48;;;;;;;40.20;22.70;;;5.70;99.90;;;;;;10402796;28;20036;-76
2022/12/30 08:13:48;;;;;;;35.57;20.07;;;5.70;99.90;;;;;;10401508;28;20033;-77
2022/12/30 08:18:49;;;;;;;36.70;20.47;;;5.80;99.90;;;;;;10402109;28;20030;-77
2022/12/30 08:23:50;;;;;;;38.83;21.40;;;5.90;99.90;;;;;;10402972;28;20877;-77
2022/12/30 08:28:51;;;;;;;41.73;22.27;;;6.00;99.90;;;;;;10400604;28;20120;-77
2022/12/30 08:33:52;;;;;;;43.43;23.07;;;6.10;99.90;;;;;;10402678;28;20021;-77
2022/12/30 08:39:03;;;;;;;44.57;24.13;;;6.20;99.90;;;;;;10401523;28;20064;-77
2022/12/30 08:44:04;;;;;;;42.87;23.90;;;6.40;99.90;;;;;;10401428;28;20144;-77
2022/12/30 08:49:07;;;;;;;44.77;24.60;;;6.40;99.90;;;;;;10401198;28;20030;-77
2022/12/30 08:54:07;;;;;;;57.60;29.03;;;6.60;99.90;;;;;;10401715;28;20036;-77
2022/12/30 08:59:10;;;;;;;52.90;25.63;;;6.70;99.90;;;;;;10401160;28;20493;-77
2022/12/30 09:04:11;;;;;;;49.70;24.00;;;6.80;99.90;;;;;;10400317;28;20128;-77
2022/12/30 09:09:17;;;;;;;47.30;25.03;;;6.80;99.90;;;;;;10401271;28;20029;-77
2022/12/30 09:14:17;;;;;;;47.83;23.23;;;6.90;99.90;;;;;;10401202;28;20037;-77
2022/12/30 09:19:18;;;;;;;41.93;24.07;;;7.00;99.90;;;;;;10401419;28;20385;-76
2022/12/30 09:24:19;;;;;;;44.80;24.97;;;7.00;99.90;;;;;;10403191;28;20033;-77
2022/12/30 09:29:19;;;;;;;39.43;23.17;;;7.10;99.90;;;;;;10409183;28;20128;-77
2022/12/30 09:34:20;;;;;;;51.97;30.80;;;7.10;99.90;;;;;;10409089;28;20026;-77
2022/12/30 09:39:30;;;;;;;45.53;25.70;;;7.10;99.90;;;;;;10408416;28;20042;-76
2022/12/30 09:44:44;;;;;;;46.17;25.53;;;7.20;99.90;;;;;;10408732;28;20489;-77
2022/12/30 09:49:52;;;;;;;48.13;26.93;;;7.20;99.90;;;;;;10409014;28;20060;-78
2022/12/30 09:55:03;;;;;;;48.87;26.17;;;7.20;99.90;;;;;;10408120;28;20502;-77
2022/12/30 10:00:16;;;;;;;41.23;23.70;;;7.20;99.90;;;;;;10405845;28;20136;-77
2022/12/30 10:05:52;;;;;;;46.87;26.03;;;7.30;99.90;;;;;;10407867;28;20091;-77
2022/12/30 10:11:14;;;;;;;43.70;24.13;;;7.40;99.90;;;;;;10329899;28;20797;-77
2022/12/30 10:16:25;;;;;;;45.07;24.13;;;7.50;99.90;;;;;;10404546;28;20424;-77
2022/12/30 10:21:57;;;;;;;45.80;24.40;;;7.40;99.90;;;;;;10405943;28;20044;-77
2022/12/30 10:27:18;;;;;;;50.93;26.57;;;7.30;99.90;;;;;;10406752;28;20032;-78
2022/12/30 10:32:22;;;;;;;42.43;24.47;;;7.20;99.90;;;;;;10406531;28;20464;-77
2022/12/30 10:37:31;;;;;;;43.13;23.50;;;7.20;99.90;;;;;;10404340;28;20041;-77
2022/12/30 10:43:09;;;;;;;47.07;23.57;;;7.40;99.90;;;;;;10405591;28;20232;-77
2022/12/30 10:48:28;;;;;;;46.40;25.20;;;7.40;99.90;;;;;;10393897;28;20041;-77
2022/12/30 10:53:30;;;;;;;44.27;23.63;;;7.70;99.90;;;;;;10405405;28;20039;-77
2022/12/30 10:58:40;;;;;;;42.57;24.10;;;8.10;99.90;;;;;;10404803;28;20115;-78
2022/12/30 11:03:52;;;;;;;43.60;24.43;;;8.50;99.90;;;;;;10405262;28;20084;-77
2022/12/30 11:09:14;;;;;;;54.27;30.23;;;8.70;99.90;;;;;;10404137;28;20477;-77
2022/12/30 11:19:37;;;;;;;36.20;21.77;;;9.10;99.90;;;;;;10403701;28;20033;-77
2022/12/30 11:24:38;;;;;;;41.47;23.80;;;9.30;99.90;;;;;;10404453;28;20033;-77
2022/12/30 11:29:38;;;;;;;38.77;19.73;;;9.40;99.90;;;;;;10404629;28;20049;-77
2022/12/30 11:34:43;;;;;;;35.97;19.37;;;9.50;99.90;;;;;;10403025;28;20040;-77
2022/12/30 11:39:44;;;;;;;33.70;17.97;;;9.60;99.90;;;;;;10403292;28;20477;-77
2022/12/30 11:44:44;;;;;;;33.93;18.47;;;9.60;99.90;;;;;;10402719;28;20057;-77
2022/12/30 11:49:50;;;;;;;32.30;17.50;;;9.70;99.90;;;;;;10401085;28;20465;-77
2022/12/30 11:54:59;;;;;;;;;;;9.80;99.90;;;;;;10402752;28;20091;-78
2022/12/30 12:00:05;;;;;;;37.63;20.53;;;9.80;99.90;;;;;;10401994;28;19924;-77
2022/12/30 12:05:26;;;;;;;42.88;21.75;;;9.80;99.90;;;;;;10400771;28;20026;-77
2022/12/30 12:10:52;;;;;;;35.53;17.53;;;9.90;99.90;;;;;;10400589;28;20484;-78
2022/12/30 12:15:55;;;;;;;29.05;15.15;;;9.90;99.90;;;;;;10401180;28;20029;-78
2022/12/30 12:21:05;;;;;;;29.00;16.13;;;9.90;99.90;;;;;;10394073;28;20028;-77
2022/12/30 12:26:24;;;;;;;34.77;19.07;;;10.00;99.90;;;;;;10400951;28;20034;-78
2022/12/30 12:31:45;;;;;;;34.40;16.38;;;10.10;99.90;;;;;;10400009;28;20075;-76
2022/12/30 12:36:57;;;;;;;21.38;11.70;;;10.10;99.90;;;;;;10397185;28;20033;-76
2022/12/30 12:42:15;;;;;;;23.05;12.63;;;10.10;99.90;;;;;;10400791;28;20108;-77
2022/12/30 12:47:27;;;;;;;30.27;14.63;;;10.10;99.90;;;;;;10398647;28;20053;-77
2022/12/30 12:52:45;;;;;;;55.30;24.02;;;10.10;99.90;;;;;;10401187;28;20029;-77
2022/12/30 12:58:02;;;;;;;48.50;21.10;;;10.10;99.90;;;;;;10399989;28;20029;-77
2022/12/30 13:03:25;;;;;;;22.57;11.47;;;10.10;99.90;;;;;;10400007;28;20037;-77
2022/12/30 13:08:37;;;;;;;22.02;9.00;;;10.10;99.90;;;;;;10399845;28;20037;-77
2022/12/30 13:13:49;;;;;;;23.50;11.83;;;10.10;99.90;;;;;;10397959;28;20029;-77
2022/12/30 13:18:52;;;;;;;25.33;12.97;;;10.00;99.90;;;;;;10399117;28;20444;-77
2022/12/30 13:24:04;;;;;;;51.58;22.40;;;9.90;99.90;;;;;;10400428;28;20033;-77
2022/12/30 13:29:06;;;;;;;30.77;15.73;;;9.90;99.90;;;;;;10399838;28;20481;-78
2022/12/30 13:34:25;;;;;;;54.63;28.50;;;9.80;99.90;;;;;;10400262;28;20090;-78
2022/12/30 13:39:46;;;;;;;97.70;38.93;;;9.70;99.90;;;;;;10387120;28;20037;-77
2022/12/30 13:44:47;;;;;;;70.50;36.63;;;9.60;99.90;;;;;;10393381;28;20076;-77
2022/12/30 13:49:48;;;;;;;44.27;22.03;;;9.40;99.90;;;;;;10389206;28;20041;-77
2022/12/30 13:54:51;;;;;;;110.13;47.33;;;9.30;99.90;;;;;;10398702;28;20586;-78
2022/12/30 14:00:09;;;;;;;76.80;33.03;;;9.20;99.90;;;;;;10393385;28;20056;-76
2022/12/30 14:05:38;;;;;;;74.47;39.13;;;9.00;99.90;;;;;;10398311;28;20041;-79
2022/12/30 14:10:45;;;;;;;84.07;41.93;;;8.90;99.90;;;;;;10393933;28;20048;-76
2022/12/30 14:15:45;;;;;;;240.20;102.40;;;8.80;99.90;;;;;;10406435;28;20076;-78
2022/12/30 14:20:58;;;;;;;151.10;74.33;;;8.60;99.90;;;;;;10406845;28;20112;-77
2022/12/30 14:26:19;;;;;;;139.00;65.33;;;8.40;99.90;;;;;;10406425;28;20033;-77
2022/12/30 14:31:35;;;;;;;80.03;39.57;;;8.20;99.90;;;;;;10405615;28;20045;-76
2022/12/30 14:36:38;;;;;;;;;;;8.00;99.90;;;;;;10395187;28;20037;-79
2022/12/30 14:41:44;;;;;;;79.93;41.50;;;7.70;99.90;;;;;;10404760;28;19971;-77
2022/12/30 14:46:45;;;;;;;92.90;50.23;;;7.40;99.90;;;;;;10396923;28;20057;-76
2022/12/30 14:52:10;;;;;;;153.07;91.87;;;7.10;99.90;;;;;;10405347;28;20029;-76
2022/12/30 14:57:16;;;;;;;91.70;54.40;;;6.80;99.90;;;;;;10404810;28;20132;-76
2022/12/30 15:02:31;;;;;;;243.43;94.20;;;6.40;99.90;;;;;;10403939;28;20045;-76
2022/12/30 15:07:34;;;;;;;201.57;86.43;;;6.20;99.90;;;;;;10403400;28;20393;-76
2022/12/30 15:12:34;;;;;;;131.50;63.63;;;6.00;99.90;;;;;;10403969;28;20025;-77
2022/12/30 15:17:35;;;;;;;129.63;61.80;;;5.80;99.90;;;;;;10403158;28;20042;-78
2022/12/30 15:22:37;;;;;;;107.50;54.07;;;5.60;99.90;;;;;;10403062;28;20116;-76
2022/12/30 15:27:38;;;;;;;100.73;46.87;;;5.40;99.90;;;;;;10403349;28;20059;-76
2022/12/30 15:32:39;;;;;;;108.90;49.30;;;5.20;99.90;;;;;;10402252;28;20382;-77
2022/12/30 15:37:46;;;;;;;111.83;56.03;;;5.00;99.90;;;;;;10400200;28;20095;-78
2022/12/30 15:42:51;;;;;;;160.23;88.67;;;4.80;99.90;;;;;;10402556;28;20079;-79
2022/12/30 15:47:57;;;;;;;134.80;76.10;;;4.70;99.90;;;;;;10400947;28;20029;-76
2022/12/30 15:52:58;;;;;;;203.38;115.80;;;4.60;99.90;;;;;;10402314;28;20037;-77
2022/12/30 15:57:59;;;;;;;217.73;120.90;;;4.60;99.90;;;;;;10397505;28;20050;-76
2022/12/30 16:03:00;;;;;;;247.13;125.97;;;4.50;99.90;;;;;;10404642;28;20052;-76
2022/12/30 16:08:35;;;;;;;222.07;120.10;;;4.30;99.90;;;;;;10400560;28;20113;-79
2022/12/30 16:13:44;;;;;;;162.43;83.87;;;4.20;99.90;;;;;;10359729;28;20053;-75
2022/12/30 16:19:11;;;;;;;182.70;88.33;;;4.20;99.90;;;;;;10402447;28;20079;-76
2022/12/30 16:24:14;;;;;;;223.93;111.77;;;4.10;99.90;;;;;;10399864;28;20088;-77
2022/12/30 16:29:24;;;;;;;237.17;124.87;;;4.10;99.90;;;;;;10399600;28;20033;-78
2022/12/30 16:34:25;;;;;;;146.03;82.07;;;4.00;99.90;;;;;;10408300;28;20029;-77
2022/12/30 16:39:25;;;;;;;113.17;65.97;;;3.90;99.90;;;;;;10411652;28;20045;-76
2022/12/30 16:44:26;;;;;;;124.90;67.90;;;3.90;99.90;;;;;;10413545;28;20049;-78
2022/12/30 16:49:26;;;;;;;117.87;68.60;;;3.80;99.90;;;;;;10401043;28;20389;-76
2022/12/30 16:54:27;;;;;;;130.93;70.07;;;3.70;99.90;;;;;;10400703;28;20151;-78
2022/12/30 16:59:27;;;;;;;181.93;97.13;;;3.60;99.90;;;;;;10404649;28;20041;-79
2022/12/30 17:04:28;;;;;;;189.20;100.10;;;3.60;99.90;;;;;;10400466;28;20061;-76
2022/12/30 17:14:48;;;;;;;190.73;100.33;;;3.50;99.90;;;;;;10401070;28;20041;-77
2022/12/30 17:19:48;;;;;;;187.43;103.30;;;3.50;99.90;;;;;;10404317;28;20037;-77
2022/12/30 17:24:49;;;;;;;183.07;96.50;;;3.50;99.90;;;;;;10400729;28;20037;-79
2022/12/30 17:29:50;;;;;;;138.87;73.40;;;3.50;99.90;;;;;;10411644;28;20128;-79
2022/12/30 17:34:51;;;;;;;170.37;91.33;;;3.60;99.90;;;;;;10413025;28;21058;-76
2022/12/30 17:39:52;;;;;;;198.83;107.27;;;3.50;99.90;;;;;;10400122;28;20149;-76
2022/12/30 17:44:53;;;;;;;179.50;100.43;;;3.40;99.90;;;;;;10400982;28;20455;-75
2022/12/30 17:49:53;;;;;;;197.60;105.23;;;3.40;99.90;;;;;;10420907;28;20107;-80
2022/12/30 17:54:54;;;;;;;222.27;115.90;;;3.30;99.90;;;;;;10413651;28;20120;-77
2022/12/30 17:59:54;;;;;;;201.13;103.33;;;3.20;99.90;;;;;;10429724;28;20072;-79
2022/12/30 18:04:55;;;;;;;233.77;120.20;;;3.20;99.90;;;;;;10422009;28;20036;-77
2022/12/30 18:09:55;;;;;;;291.77;141.37;;;3.10;99.90;;;;;;10414146;28;20383;-79
2022/12/30 18:14:59;;;;;;;279.90;133.63;;;3.00;99.90;;;;;;10423376;28;20476;-77
2022/12/30 18:20:00;;;;;;;314.97;152.40;;;2.90;99.90;;;;;;10412757;28;20833;-77
2022/12/30 18:25:00;;;;;;;345.70;154.97;;;2.90;99.90;;;;;;10406736;28;20044;-79
2022/12/30 18:30:01;;;;;;;343.30;162.93;;;2.90;99.90;;;;;;10409495;28;20029;-77
2022/12/30 18:35:02;;;;;;;312.20;154.83;;;2.70;99.90;;;;;;10407343;28;20572;-79
2022/12/30 18:40:03;;;;;;;309.60;162.97;;;2.70;99.90;;;;;;10406294;28;20528;-77
2022/12/30 18:45:04;;;;;;;271.00;136.43;;;2.60;99.90;;;;;;10408767;28;20052;-78
2022/12/30 18:50:05;;;;;;;218.40;113.97;;;2.50;99.90;;;;;;10405894;28;20425;-79
2022/12/30 18:55:06;;;;;;;211.33;111.43;;;2.60;99.90;;;;;;10404829;28;20048;-77
2022/12/30 19:00:07;;;;;;;177.20;93.93;;;2.60;99.90;;;;;;10403593;28;20251;-77
2022/12/30 19:05:07;;;;;;;174.63;91.57;;;2.60;99.90;;;;;;10405010;28;20029;-78
2022/12/30 19:10:08;;;;;;;220.83;109.40;;;2.60;99.90;;;;;;10403828;28;20033;-77
2022/12/30 19:15:09;;;;;;;205.43;107.87;;;2.50;99.90;;;;;;10403528;28;20482;-77
2022/12/30 19:20:12;;;;;;;223.50;113.97;;;2.60;99.90;;;;;;10409656;28;20041;-79
2022/12/30 19:25:12;;;;;;;178.57;99.37;;;2.60;99.90;;;;;;10416882;28;20073;-77
2022/12/30 19:30:14;;;;;;;249.60;126.67;;;2.60;99.90;;;;;;10417371;28;20116;-77
2022/12/30 19:35:14;;;;;;;239.40;117.47;;;2.60;99.90;;;;;;10411156;28;20527;-78
2022/12/30 19:40:16;;;;;;;184.90;97.87;;;2.60;99.90;;;;;;10403909;28;20087;-78
2022/12/30 19:45:16;;;;;;;182.43;95.07;;;2.40;99.90;;;;;;10388670;28;20053;-76
2022/12/30 19:50:17;;;;;;;199.07;103.53;;;2.40;99.90;;;;;;10411730;28;20040;-77
2022/12/30 19:55:17;;;;;;;213.50;113.97;;;2.40;99.90;;;;;;10401700;28;20580;-78
2022/12/30 20:00:18;;;;;;;187.97;89.10;;;2.30;99.90;;;;;;10402158;28;20056;-77
2022/12/30 20:05:19;;;;;;;238.40;112.37;;;2.30;99.90;;;;;;10401072;28;20038;-78
2022/12/30 20:10:19;;;;;;;218.87;106.43;;;2.20;99.90;;;;;;10400622;28;20091;-77
2022/12/30 20:15:21;;;;;;;218.57;105.37;;;2.10;99.90;;;;;;10417580;28;20829;-77
2022/12/30 20:20:22;;;;;;;243.00;113.70;;;2.10;99.90;;;;;;10413026;28;20038;-76
2022/12/30 20:25:23;;;;;;;241.93;115.63;;;2.10;99.90;;;;;;10410543;28;20029;-77
2022/12/30 20:30:23;;;;;;;198.00;94.93;;;2.10;99.90;;;;;;10402419;28;20123;-77
2022/12/30 20:35:24;;;;;;;207.50;94.77;;;2.10;99.90;;;;;;10408764;28;20033;-77
2022/12/30 20:40:25;;;;;;;213.97;100.30;;;2.00;99.90;;;;;;10401022;28;20430;-78
2022/12/30 20:45:26;;;;;;;193.10;92.50;;;2.00;99.90;;;;;;10402105;28;20075;-76
2022/12/30 20:50:27;;;;;;;167.73;88.87;;;2.00;99.90;;;;;;10392978;28;20033;-76
2022/12/30 20:55:27;;;;;;;182.70;88.80;;;1.90;99.90;;;;;;10396820;28;20115;-79
2022/12/30 21:00:28;;;;;;;199.80;93.87;;;2.00;99.90;;;;;;10401233;28;20111;-77
2022/12/30 21:05:29;;;;;;;205.77;97.47;;;2.00;99.90;;;;;;10402903;28;20552;-77
2022/12/30 21:10:29;;;;;;;176.93;88.63;;;2.00;99.90;;;;;;10400118;28;20033;-78
2022/12/30 21:15:30;;;;;;;170.23;88.30;;;2.10;99.90;;;;;;10411782;28;21010;-78
2022/12/30 21:20:30;;;;;;;184.73;92.27;;;2.10;99.90;;;;;;10418677;28;20049;-77
2022/12/30 21:25:31;;;;;;;225.07;102.53;;;2.10;99.90;;;;;;10410146;28;20025;-77
2022/12/30 21:30:31;;;;;;;169.10;87.00;;;2.20;99.90;;;;;;10408445;28;20032;-76
2022/12/30 21:35:35;;;;;;;225.23;102.13;;;2.20;99.90;;;;;;10408614;28;20050;-80
2022/12/30 22:07:33;;;;;;;179.30;91.33;;;2.20;99.90;;;;;;10396432;28;20053;-76
2022/12/30 22:12:34;;;;;;;150.80;78.13;;;2.10;99.90;;;;;;10410686;28;20037;-79
2022/12/30 22:17:34;;;;;;;192.57;93.43;;;2.20;99.90;;;;;;10408712;28;20120;-76
2022/12/30 22:22:59;;;;;;;164.23;85.17;;;2.10;99.90;;;;;;10409729;28;20755;-76
2022/12/30 22:28:00;;;;;;;228.03;106.50;;;2.00;99.90;;;;;;10405629;28;20044;-79
2022/12/30 22:33:01;;;;;;;228.43;106.77;;;2.00;99.90;;;;;;10417974;28;20094;-76
2022/12/30 22:38:01;;;;;;;237.17;108.10;;;1.90;99.90;;;;;;10406254;28;20037;-77
2022/12/30 22:43:02;;;;;;;223.83;106.20;;;1.90;99.90;;;;;;10420167;22;20397;-77
2022/12/30 22:48:03;;;;;;;190.73;97.53;;;2.00;99.90;;;;;;10405132;28;20543;-77
2022/12/30 22:53:04;;;;;;;172.53;91.17;;;1.90;99.90;;;;;;10404869;28;20065;-77
2022/12/30 22:58:05;;;;;;;216.33;102.07;;;1.80;99.90;;;;;;10394836;28;20137;-76
2022/12/30 23:03:05;;;;;;;159.40;85.17;;;1.80;99.90;;;;;;10404031;28;20041;-76
2022/12/30 23:08:07;;;;;;;233.20;106.93;;;1.80;99.90;;;;;;10404555;28;20037;-76
2022/12/30 23:18:42;;;;;;;200.67;102.80;;;1.60;99.90;;;;;;10391886;28;20045;-77
2022/12/30 23:29:05;;;;;;;220.97;106.47;;;1.60;99.90;;;;;;10403845;28;20041;-76
2022/12/30 23:34:07;;;;;;;210.97;106.10;;;1.50;99.90;;;;;;10403396;28;20033;-76
2022/12/30 23:39:08;;;;;;;204.90;103.97;;;1.50;99.90;;;;;;10403318;28;20053;-76
2022/12/30 23:44:10;;;;;;;193.93;104.57;;;1.50;99.90;;;;;;10402782;28;20091;-76
2022/12/30 23:49:11;;;;;;;183.97;93.77;;;1.70;99.90;;;;;;10402656;28;20037;-76
2022/12/30 23:54:12;;;;;;;197.27;98.57;;;1.80;99.90;;;;;;10402317;28;20037;-77
2022/12/30 23:59:12;;;;;;;179.93;91.63;;;1.90;99.90;;;;;;10402914;28;20041;-75
